Portada
METAR-TAF:

METAR-TAF

Aeroports :

Tuggurt, Algèria

latitud: 33-07N, longitud: 006-08E, altitud: 85 m

Observació

L'informe es va fer fa 30 minuts, a les 17:00 UTC
Vent 5 kt del Oest/Nord-Oest
Temperatura 39°C
Humitat 12%
Pressió 1012 hPa
Visibilitat 10 km o més
sense núvols per sota de 1500 mi sense presència de cumulonimbus.

METAR: DAUK 141700Z 29005KT CAVOK 39/05 Q1012

Hora: 18:30 (17:30 UTC)

Pronòstic

L'informe es va fer fa 3 hores i 30 minuts, a les 14:00 UTC
Pronòstic vàlid del 14 a les 15 UTC al 14 a les 24 UTC
Vent 8 kt del Est
Visibilitat 10 km o més
Núvols disperses a una alçada de 4000 ft

TAF: DAUK 141400Z 1415/1424 08008KT 9999 SCT040

Observacions i pronòstics meteorològics de més de 4000 aeroports (METAR i TAF).

Les estacions disponibles són els punts grocs i vermells al mapa.

Posi el ratolí al punt desitjat per veure el nom de l'estació.

Feu clic per veure les observacions i els pronòstics meteorològics.

Per canviar el mapa: feu clic els botons verds amb una creu de color negre per apropar; al botó verd amb un guió per allunyar la imatge; o en les fletxes verdes per a mapes adjacents.


METAR-TAF: